createdAt,value
2023-03-21T00:01:31.648Z,85.05
2023-03-21T00:03:58.504Z,84.68
2023-03-21T00:06:28.222Z,84.98
2023-03-21T00:08:58.581Z,84.89
2023-03-21T00:11:25.138Z,85.51
2023-03-21T00:14:02.429Z,85.52
2023-03-21T00:16:35.228Z,85.58
2023-03-21T00:19:06.011Z,85.47
2023-03-21T00:21:59.261Z,85.15
2023-03-21T00:24:22.706Z,84.10
2023-03-21T00:27:15.853Z,85.28
2023-03-21T00:29:49.766Z,84.89
2023-03-21T00:32:22.888Z,85.37
2023-03-21T00:35:11.955Z,85.16
2023-03-21T00:37:46.599Z,85.20
2023-03-21T00:40:27.926Z,85.54
2023-03-21T00:42:59.698Z,86.02
2023-03-21T00:45:27.342Z,86.05
2023-03-21T00:47:58.293Z,85.32
2023-03-21T00:50:28.597Z,85.62
2023-03-21T00:52:55.954Z,85.13
2023-03-21T00:55:22.594Z,85.53
2023-03-21T00:58:02.205Z,85.95
2023-03-21T01:00:30.250Z,86.49
2023-03-21T01:03:08.523Z,85.90
2023-03-21T01:06:07.056Z,85.60
2023-03-21T01:08:51.068Z,85.68
2023-03-21T01:11:24.976Z,86.00
2023-03-21T01:13:59.748Z,85.68
2023-03-21T01:16:31.742Z,85.29
2023-03-21T01:18:59.736Z,85.00
2023-03-21T01:21:26.837Z,85.68
2023-03-21T01:23:56.576Z,85.69
2023-03-21T01:26:26.922Z,85.13
2023-03-21T01:28:56.208Z,85.28
2023-03-21T01:31:23.585Z,85.85
2023-03-21T01:33:53.051Z,85.11
2023-03-21T01:36:23.997Z,85.10
2023-03-21T01:39:00.102Z,84.89
2023-03-21T01:41:41.905Z,85.34
2023-03-21T01:44:19.480Z,84.86
2023-03-21T01:47:22.176Z,84.96
2023-03-21T01:49:46.885Z,85.51
2023-03-21T01:52:29.652Z,85.72
2023-03-21T01:55:04.725Z,84.54
2023-03-21T01:57:52.210Z,84.70
2023-03-21T02:00:38.587Z,84.74
2023-03-21T02:03:15.288Z,84.52
2023-03-21T02:06:01.747Z,84.52
2023-03-21T02:08:39.157Z,85.28
2023-03-21T02:11:10.289Z,85.32
2023-03-21T02:13:37.717Z,85.24
2023-03-21T02:16:26.128Z,85.15
2023-03-21T02:19:04.912Z,85.25
2023-03-21T02:21:58.320Z,84.61
2023-03-21T02:24:38.653Z,85.63
2023-03-21T02:27:11.164Z,85.26
2023-03-21T02:30:04.578Z,85.44
2023-03-21T02:33:19.506Z,85.95
2023-03-21T02:36:26.879Z,85.65
2023-03-21T02:38:56.336Z,85.63
2023-03-21T02:41:40.384Z,85.39
2023-03-21T02:44:42.329Z,86.06
2023-03-21T02:47:23.528Z,85.23
2023-03-21T02:49:53.570Z,84.84
2023-03-21T02:52:37.906Z,85.06
2023-03-21T02:55:20.144Z,85.06
2023-03-21T02:57:52.849Z,84.98
2023-03-21T03:03:34.999Z,85.26
2023-03-21T03:06:13.929Z,85.55
2023-03-21T03:09:12.194Z,84.91
2023-03-21T03:11:43.737Z,84.44
2023-03-21T03:14:46.820Z,84.92
2023-03-21T03:17:51.968Z,84.81
2023-03-21T03:20:43.274Z,85.54
2023-03-21T03:23:32.070Z,86.18
2023-03-21T03:26:07.172Z,85.44
2023-03-21T03:28:53.363Z,85.34
2023-03-21T03:31:34.065Z,85.39
2023-03-21T03:34:07.294Z,85.43
2023-03-21T03:36:39.788Z,85.41
2023-03-21T03:39:10.500Z,84.25
2023-03-21T03:42:12.437Z,84.39
2023-03-21T03:44:42.338Z,84.80
2023-03-21T03:47:32.946Z,84.99
2023-03-21T03:50:39.425Z,85.17
2023-03-21T03:53:18.586Z,86.02
2023-03-21T03:55:46.526Z,85.49
2023-03-21T03:58:44.870Z,85.74
2023-03-21T04:01:17.776Z,85.95
2023-03-21T04:06:35.818Z,85.21
2023-03-21T04:09:18.711Z,85.05
2023-03-21T04:11:47.411Z,85.59
2023-03-21T04:14:14.148Z,85.59
2023-03-21T04:16:43.965Z,85.75
2023-03-21T04:19:20.193Z,85.28
2023-03-21T04:21:47.759Z,85.61
2023-03-21T04:24:17.202Z,86.04
2023-03-21T04:26:43.892Z,86.16
2023-03-21T04:29:10.650Z,86.12
2023-03-21T04:31:45.639Z,86.09
2023-03-21T04:34:15.359Z,84.89
2023-03-21T04:36:46.085Z,85.25
2023-03-21T04:39:13.853Z,85.49
2023-03-21T04:41:46.705Z,85.30
2023-03-21T04:44:15.650Z,85.49
2023-03-21T04:46:45.985Z,85.41
2023-03-21T04:49:27.496Z,85.52
2023-03-21T04:51:58.455Z,84.96
2023-03-21T04:54:27.693Z,83.91
2023-03-21T04:56:56.645Z,83.57
2023-03-21T04:59:26.627Z,82.87
2023-03-21T05:01:54.166Z,83.45
2023-03-21T05:04:23.025Z,82.76
2023-03-21T05:06:49.862Z,82.79
2023-03-21T05:09:16.551Z,83.07
2023-03-21T05:11:43.927Z,83.22
2023-03-21T05:14:25.753Z,83.59
2023-03-21T05:17:01.776Z,83.25
2023-03-21T05:19:35.828Z,82.31
2023-03-21T05:22:12.171Z,82.60
2023-03-21T05:24:50.700Z,82.29
2023-03-21T05:27:38.558Z,82.62
2023-03-21T05:30:21.587Z,82.63
2023-03-21T05:32:48.343Z,82.69
2023-03-21T05:35:15.065Z,83.04
2023-03-21T05:37:44.893Z,84.14
2023-03-21T05:40:14.399Z,83.96
2023-03-21T05:42:47.175Z,83.80
2023-03-21T05:45:14.561Z,83.45
2023-03-21T05:47:41.559Z,84.09
2023-03-21T05:50:09.044Z,84.48
2023-03-21T05:52:37.680Z,84.94
2023-03-21T05:57:48.494Z,84.97
2023-03-21T06:00:15.689Z,85.36
2023-03-21T06:02:42.579Z,84.97
2023-03-21T06:05:13.810Z,84.87
2023-03-21T06:07:40.564Z,85.19
2023-03-21T06:10:10.567Z,85.09
2023-03-21T06:12:37.413Z,85.69
2023-03-21T06:15:06.186Z,85.39
2023-03-21T06:17:41.028Z,85.54
2023-03-21T06:20:08.960Z,85.92
2023-03-21T06:22:36.684Z,85.64
2023-03-21T06:25:11.169Z,85.30
2023-03-21T06:27:38.142Z,84.80
2023-03-21T06:30:07.232Z,84.64
2023-03-21T06:32:37.660Z,84.79
2023-03-21T06:35:07.679Z,85.47
2023-03-21T06:37:35.215Z,85.02
2023-03-21T06:40:01.948Z,84.83
2023-03-21T06:42:30.217Z,84.79
2023-03-21T06:44:57.192Z,84.61
2023-03-21T06:47:27.022Z,83.57
2023-03-21T06:49:59.404Z,83.75
2023-03-21T06:52:26.239Z,83.53
2023-03-21T06:54:53.428Z,83.84
2023-03-21T06:57:22.032Z,83.61
2023-03-21T06:59:48.826Z,84.21
2023-03-21T07:02:20.813Z,83.68
2023-03-21T07:04:47.406Z,82.81
2023-03-21T07:07:14.260Z,82.39
2023-03-21T07:09:41.246Z,82.70
2023-03-21T07:12:10.598Z,81.46
2023-03-21T07:14:45.066Z,81.24
2023-03-21T07:17:17.880Z,81.01
2023-03-21T07:19:47.430Z,79.88
2023-03-21T07:22:17.364Z,78.72
2023-03-21T07:24:45.963Z,77.50
2023-03-21T07:27:17.238Z,78.07
2023-03-21T07:29:44.381Z,77.48
2023-03-21T07:32:14.489Z,77.11
2023-03-21T07:34:47.310Z,77.30
2023-03-21T07:37:32.056Z,75.01
2023-03-21T07:40:00.398Z,74.96
2023-03-21T07:42:28.100Z,74.79
2023-03-21T07:45:01.064Z,73.93
2023-03-21T07:47:29.591Z,73.59
2023-03-21T07:49:56.238Z,72.89
2023-03-21T07:52:25.907Z,72.51
2023-03-21T07:54:58.579Z,71.64
2023-03-21T07:57:25.297Z,71.71
2023-03-21T07:59:52.241Z,70.97
2023-03-21T08:02:20.310Z,70.24
2023-03-21T08:04:52.240Z,69.90
2023-03-21T08:07:24.523Z,70.25
2023-03-21T08:09:51.126Z,69.43
2023-03-21T08:12:19.740Z,70.30
2023-03-21T08:14:52.402Z,70.79
2023-03-21T08:17:22.412Z,70.55
2023-03-21T08:19:49.455Z,69.86
2023-03-21T08:22:19.130Z,69.46
2023-03-21T08:24:45.740Z,69.38
2023-03-21T08:30:02.670Z,68.10
2023-03-21T08:32:42.250Z,68.05
2023-03-21T08:35:13.801Z,68.66
2023-03-21T08:37:44.520Z,67.79
2023-03-21T08:40:21.337Z,66.96
2023-03-21T08:42:56.852Z,66.13
2023-03-21T08:45:31.714Z,66.43
2023-03-21T08:47:58.897Z,66.45
2023-03-21T08:50:40.810Z,65.17
2023-03-21T08:53:09.489Z,65.75
2023-03-21T08:55:36.456Z,66.21
2023-03-21T08:58:11.750Z,64.98
2023-03-21T09:00:41.761Z,64.42
2023-03-21T09:03:11.206Z,65.31
2023-03-21T09:05:38.725Z,64.99
2023-03-21T09:08:09.406Z,65.05
2023-03-21T09:10:37.850Z,64.38
2023-03-21T09:13:13.353Z,63.42
2023-03-21T09:15:40.545Z,63.88
2023-03-21T09:18:28.302Z,64.83
2023-03-21T09:20:56.580Z,65.03
2023-03-21T09:23:23.290Z,63.91
2023-03-21T09:25:53.565Z,63.35
2023-03-21T09:28:26.712Z,63.84
2023-03-21T09:30:55.451Z,64.27
2023-03-21T09:33:27.341Z,64.46
2023-03-21T09:36:02.694Z,64.43
2023-03-21T09:38:30.800Z,63.66
2023-03-21T09:41:19.756Z,62.60
2023-03-21T09:44:18.742Z,62.52
2023-03-21T09:47:16.182Z,62.11
2023-03-21T09:49:48.536Z,62.63
2023-03-21T09:52:45.759Z,61.13
2023-03-21T09:55:35.365Z,60.87
2023-03-21T09:58:21.437Z,59.42
2023-03-21T10:01:18.283Z,61.05
2023-03-21T10:03:54.445Z,60.39
2023-03-21T10:06:34.892Z,59.49
2023-03-21T10:09:34.954Z,58.25
2023-03-21T10:15:16.145Z,58.40
2023-03-21T10:17:49.093Z,57.10
2023-03-21T10:20:32.359Z,57.21
2023-03-21T10:23:03.426Z,57.39
2023-03-21T10:25:42.563Z,57.67
2023-03-21T10:28:17.581Z,56.71
2023-03-21T10:31:04.841Z,55.79
2023-03-21T10:33:43.496Z,56.44
2023-03-21T10:36:28.004Z,55.23
2023-03-21T10:39:07.314Z,55.87
2023-03-21T10:41:35.340Z,55.21
2023-03-21T10:44:37.114Z,52.01
2023-03-21T10:47:11.811Z,50.14
2023-03-21T10:50:11.585Z,50.41
2023-03-21T10:52:41.914Z,50.20
2023-03-21T10:55:32.308Z,49.46
2023-03-21T10:58:04.217Z,49.72
2023-03-21T11:00:41.576Z,49.72
2023-03-21T11:03:24.811Z,50.45
2023-03-21T11:05:59.346Z,48.96
2023-03-21T11:08:33.013Z,48.80
2023-03-21T11:11:20.407Z,47.39
2023-03-21T11:13:57.519Z,48.71
2023-03-21T11:16:41.282Z,48.81
2023-03-21T11:19:51.941Z,48.03
2023-03-21T11:22:22.208Z,48.19
2023-03-21T11:24:59.909Z,47.77
2023-03-21T11:27:34.897Z,48.12
2023-03-21T11:30:21.710Z,47.66
2023-03-21T11:32:59.408Z,47.79
2023-03-21T11:35:32.945Z,46.99
2023-03-21T11:38:04.404Z,47.17
2023-03-21T11:40:40.493Z,46.87
2023-03-21T11:43:19.631Z,46.58
2023-03-21T11:46:00.815Z,45.99
2023-03-21T11:48:28.965Z,46.49
2023-03-21T11:54:55.913Z,45.38
2023-03-21T11:57:27.534Z,45.57
2023-03-21T12:00:00.367Z,46.10
2023-03-21T12:03:28.772Z,44.89
2023-03-21T12:06:02.353Z,44.47
2023-03-21T12:08:36.533Z,44.78
2023-03-21T12:11:44.230Z,45.03
2023-03-21T12:14:31.977Z,44.67
2023-03-21T12:17:32.737Z,44.91
2023-03-21T12:20:27.503Z,45.79
2023-03-21T12:23:18.664Z,45.56
2023-03-21T12:26:03.611Z,46.56
2023-03-21T12:28:39.087Z,47.28
2023-03-21T12:31:46.411Z,46.76
2023-03-21T12:34:22.000Z,47.17
2023-03-21T12:37:05.339Z,47.96
2023-03-21T12:39:35.688Z,48.22
2023-03-21T12:42:44.681Z,47.24
2023-03-21T12:45:47.093Z,48.00
2023-03-21T12:48:54.854Z,48.33
2023-03-21T12:51:34.719Z,48.38
2023-03-21T12:54:17.635Z,48.54
2023-03-21T12:57:08.762Z,48.15
2023-03-21T12:59:43.067Z,48.63
2023-03-21T13:02:31.506Z,48.09
2023-03-21T13:05:19.745Z,48.16
2023-03-21T13:07:59.368Z,48.56
2023-03-21T13:10:29.184Z,47.87
2023-03-21T13:13:22.926Z,47.69
2023-03-21T13:19:57.900Z,48.85
2023-03-21T13:22:34.953Z,48.92
2023-03-21T13:25:17.940Z,48.79
2023-03-21T13:28:14.349Z,49.46
2023-03-21T13:30:41.261Z,50.11
2023-03-21T13:33:22.698Z,49.45
2023-03-21T13:36:15.720Z,48.63
2023-03-21T13:38:43.465Z,48.96
2023-03-21T13:41:21.476Z,48.71
2023-03-21T13:44:27.066Z,48.87
2023-03-21T13:47:06.418Z,49.09
2023-03-21T13:49:41.453Z,49.34
2023-03-21T13:52:13.856Z,48.46
2023-03-21T13:54:57.682Z,48.68
2023-03-21T13:57:27.276Z,49.34
2023-03-21T14:00:37.742Z,49.18
2023-03-21T14:03:21.218Z,49.47
2023-03-21T14:05:55.954Z,49.28
2023-03-21T14:08:37.261Z,49.03
2023-03-21T14:11:07.427Z,49.71
2023-03-21T14:13:38.081Z,49.53
2023-03-21T14:16:31.327Z,49.75
2023-03-21T14:19:04.773Z,48.97
2023-03-21T14:21:34.284Z,49.75
2023-03-21T14:24:10.189Z,50.45
2023-03-21T14:26:44.036Z,50.51
2023-03-21T14:29:26.157Z,50.44
2023-03-21T14:32:00.754Z,50.14
2023-03-21T14:34:31.482Z,49.69
2023-03-21T14:37:32.034Z,49.46
2023-03-21T14:40:01.132Z,50.40
2023-03-21T14:45:50.102Z,50.34
2023-03-21T14:48:20.108Z,50.49
2023-03-21T14:51:04.760Z,50.24
2023-03-21T14:53:36.973Z,49.98
2023-03-21T14:59:19.672Z,50.60
2023-03-21T15:01:53.639Z,50.71
2023-03-21T15:04:21.790Z,50.83
2023-03-21T15:07:08.201Z,50.54
2023-03-21T15:09:35.206Z,50.29
2023-03-21T15:12:11.449Z,50.18
2023-03-21T15:14:42.018Z,50.17
2023-03-21T15:17:10.700Z,49.25
2023-03-21T15:19:40.039Z,50.24
2023-03-21T15:22:27.553Z,48.68
2023-03-21T15:25:08.734Z,47.95
2023-03-21T15:27:48.849Z,48.20
2023-03-21T15:30:32.907Z,47.17
2023-03-21T15:33:07.787Z,47.54
2023-03-21T15:35:58.956Z,48.59
2023-03-21T15:38:34.211Z,48.68
2023-03-21T15:41:16.686Z,49.54
2023-03-21T15:46:52.089Z,50.34
2023-03-21T15:50:04.531Z,51.21
2023-03-21T15:52:32.306Z,50.87
2023-03-21T15:55:05.998Z,51.31
2023-03-21T15:57:38.661Z,50.80
2023-03-21T16:00:36.037Z,51.03
2023-03-21T16:03:20.827Z,51.32
2023-03-21T16:06:08.838Z,51.86
2023-03-21T16:08:49.276Z,52.09
2023-03-21T16:11:25.431Z,51.90
2023-03-21T16:13:56.604Z,52.15
2023-03-21T16:16:44.711Z,52.75
2023-03-21T16:19:22.735Z,53.14
2023-03-21T16:21:49.475Z,52.44
2023-03-21T16:24:19.277Z,52.71
2023-03-21T16:26:50.970Z,52.58
2023-03-21T16:29:18.698Z,53.85
2023-03-21T16:31:51.128Z,52.88
2023-03-21T16:34:21.296Z,52.72
2023-03-21T16:36:53.603Z,53.19
2023-03-21T16:39:35.622Z,53.26
2023-03-21T16:42:02.436Z,53.05
2023-03-21T16:44:34.216Z,53.13
2023-03-21T16:47:02.397Z,52.83
2023-03-21T16:49:32.398Z,52.52
2023-03-21T16:51:59.169Z,52.98
2023-03-21T16:54:29.060Z,53.30
2023-03-21T16:56:59.682Z,53.16
2023-03-21T16:59:26.482Z,53.54
2023-03-21T17:01:54.866Z,53.56
2023-03-21T17:04:27.782Z,53.59
2023-03-21T17:07:01.937Z,54.11
2023-03-21T17:09:43.013Z,54.49
2023-03-21T17:12:18.689Z,54.77
2023-03-21T17:17:38.033Z,55.04
2023-03-21T17:20:31.273Z,56.04
2023-03-21T17:23:05.244Z,56.06
2023-03-21T17:25:38.854Z,56.12
2023-03-21T17:28:16.738Z,56.09
2023-03-21T17:30:54.808Z,56.34
2023-03-21T17:33:36.122Z,56.57
2023-03-21T17:36:03.731Z,57.17
2023-03-21T17:38:41.398Z,57.45
2023-03-21T17:41:26.098Z,57.52
2023-03-21T17:44:02.728Z,57.96
2023-03-21T17:46:52.864Z,58.11
2023-03-21T17:49:27.925Z,58.34
2023-03-21T17:52:04.884Z,58.10
2023-03-21T17:55:00.539Z,58.07
2023-03-21T17:57:38.093Z,58.41
2023-03-21T18:00:16.561Z,58.09
2023-03-21T18:02:45.972Z,58.73
2023-03-21T18:05:28.935Z,59.13
2023-03-21T18:11:59.589Z,59.92
2023-03-21T18:14:34.845Z,59.60
2023-03-21T18:17:05.565Z,59.18
2023-03-21T18:19:34.566Z,60.55
2023-03-21T18:22:07.552Z,61.36
2023-03-21T18:24:34.454Z,60.53
2023-03-21T18:27:03.672Z,61.94
2023-03-21T18:32:23.144Z,62.47
2023-03-21T18:34:49.845Z,62.49
2023-03-21T18:37:18.037Z,63.04
2023-03-21T18:39:45.963Z,64.01
2023-03-21T18:42:21.480Z,63.50
2023-03-21T18:45:41.012Z,64.53
2023-03-21T18:48:07.789Z,63.82
2023-03-21T18:50:34.754Z,63.62
2023-03-21T18:53:01.634Z,63.17
2023-03-21T18:55:45.338Z,63.63
2023-03-21T18:58:19.490Z,62.75
2023-03-21T19:00:55.436Z,63.07
2023-03-21T19:03:36.643Z,62.30
2023-03-21T19:06:08.840Z,62.35
2023-03-21T19:08:41.807Z,62.36
2023-03-21T19:11:10.141Z,62.36
2023-03-21T19:13:37.778Z,62.69
2023-03-21T19:16:11.723Z,62.46
2023-03-21T19:18:57.748Z,62.02
2023-03-21T19:21:27.296Z,62.09
2023-03-21T19:24:26.612Z,62.73
2023-03-21T19:26:56.091Z,64.66
2023-03-21T19:29:26.556Z,64.56
2023-03-21T19:31:56.281Z,65.40
2023-03-21T19:34:26.225Z,65.37
2023-03-21T19:36:53.375Z,65.25
2023-03-21T19:39:56.497Z,65.95
2023-03-21T19:42:28.650Z,65.82
2023-03-21T19:45:09.385Z,66.36
2023-03-21T19:47:41.568Z,66.04
2023-03-21T19:50:47.806Z,65.73
2023-03-21T19:52:56.912Z,66.02
2023-03-21T19:55:28.851Z,65.91
2023-03-21T19:57:59.907Z,64.96
2023-03-21T20:00:40.961Z,64.82
2023-03-21T20:03:14.331Z,65.91
2023-03-21T20:05:43.048Z,66.34
2023-03-21T20:08:24.817Z,66.06
2023-03-21T20:10:53.157Z,66.28
2023-03-21T20:13:21.256Z,66.27
2023-03-21T20:15:55.098Z,65.76
2023-03-21T20:18:26.754Z,65.51
2023-03-21T20:20:57.853Z,66.65
2023-03-21T20:23:32.090Z,66.85
2023-03-21T20:26:02.114Z,66.69
2023-03-21T20:28:33.448Z,67.53
2023-03-21T20:31:02.629Z,67.93
2023-03-21T20:33:37.428Z,67.76
2023-03-21T20:39:00.338Z,67.54
2023-03-21T20:41:30.034Z,67.87
2023-03-21T20:44:45.167Z,67.93
2023-03-21T20:46:53.641Z,68.23
2023-03-21T20:49:26.838Z,67.93
2023-03-21T20:52:51.774Z,67.97
2023-03-21T20:55:03.273Z,68.09
2023-03-21T20:57:31.529Z,68.58
2023-03-21T20:59:58.081Z,68.18
2023-03-21T21:02:30.423Z,68.12
2023-03-21T21:05:24.130Z,69.14
2023-03-21T21:07:52.882Z,69.27
2023-03-21T21:10:26.870Z,69.63
2023-03-21T21:12:53.866Z,68.73
2023-03-21T21:15:23.496Z,69.61
2023-03-21T21:18:06.415Z,68.98
2023-03-21T21:20:42.832Z,69.81
2023-03-21T21:23:10.139Z,70.11
2023-03-21T21:25:42.115Z,69.73
2023-03-21T21:28:30.513Z,69.61
2023-03-21T21:31:21.331Z,68.74
2023-03-21T21:33:50.250Z,68.74
2023-03-21T21:36:21.658Z,68.17
2023-03-21T21:38:49.437Z,67.59
2023-03-21T21:41:34.704Z,67.15
2023-03-21T21:44:25.541Z,66.57
2023-03-21T21:47:14.151Z,66.46
2023-03-21T21:52:27.089Z,68.22
2023-03-21T21:54:59.036Z,69.07
2023-03-21T21:57:27.676Z,68.79
2023-03-21T21:59:56.808Z,68.77
2023-03-21T22:02:32.238Z,68.13
2023-03-21T22:05:05.624Z,68.41
2023-03-21T22:07:37.363Z,69.12
2023-03-21T22:10:05.224Z,68.28
2023-03-21T22:12:32.710Z,68.90
2023-03-21T22:14:59.482Z,69.08
2023-03-21T22:17:28.014Z,69.30
2023-03-21T22:22:43.581Z,69.28
2023-03-21T22:25:13.915Z,70.05
2023-03-21T22:27:41.744Z,70.41
2023-03-21T22:30:14.668Z,70.17
2023-03-21T22:33:06.245Z,69.84
2023-03-21T22:35:35.913Z,69.93
2023-03-21T22:38:14.365Z,69.22
2023-03-21T22:40:44.488Z,69.29
2023-03-21T22:43:14.040Z,70.13
2023-03-21T22:45:57.157Z,69.14
2023-03-21T22:48:24.976Z,68.84
2023-03-21T22:50:54.682Z,69.08
2023-03-21T22:53:30.280Z,70.64
2023-03-21T22:55:57.045Z,71.37
2023-03-21T22:58:24.091Z,71.09
2023-03-21T23:00:52.775Z,70.97
2023-03-21T23:03:19.779Z,71.28
2023-03-21T23:05:46.724Z,71.33
2023-03-21T23:08:16.849Z,71.58
2023-03-21T23:10:46.209Z,71.88
2023-03-21T23:13:18.237Z,71.75
2023-03-21T23:16:25.636Z,71.48
2023-03-21T23:19:03.351Z,71.50
2023-03-21T23:21:51.681Z,71.50
2023-03-21T23:24:56.210Z,71.54
2023-03-21T23:27:35.533Z,72.50
2023-03-21T23:30:18.998Z,72.25
2023-03-21T23:35:40.138Z,72.20
2023-03-21T23:38:13.040Z,72.17
2023-03-21T23:40:40.651Z,72.86
2023-03-21T23:43:25.650Z,72.86
2023-03-21T23:45:54.551Z,72.03
2023-03-21T23:48:34.340Z,71.94
2023-03-21T23:53:53.645Z,72.56
2023-03-21T23:56:36.437Z,72.04
2023-03-21T23:59:06.832Z,71.84
